sensor_id;sensor_type;location;lat;lon;timestamp;P1;durP1;ratioP1;P2;durP2;ratioP2
7045;SDS011;3564;53.326;10.356;2023-07-13T00:01:25;3.37;;;2.27;;
7045;SDS011;3564;53.326;10.356;2023-07-13T00:03:51;6.87;;;2.27;;
7045;SDS011;3564;53.326;10.356;2023-07-13T00:06:17;3.03;;;1.90;;
7045;SDS011;3564;53.326;10.356;2023-07-13T00:08:44;4.10;;;2.53;;
7045;SDS011;3564;53.326;10.356;2023-07-13T00:11:10;3.83;;;2.10;;
7045;SDS011;3564;53.326;10.356;2023-07-13T00:13:36;5.87;;;1.87;;
7045;SDS011;3564;53.326;10.356;2023-07-13T00:16:04;2.50;;;1.57;;
7045;SDS011;3564;53.326;10.356;2023-07-13T00:18:29;4.20;;;2.17;;
7045;SDS011;3564;53.326;10.356;2023-07-13T00:20:56;3.63;;;2.00;;
7045;SDS011;3564;53.326;10.356;2023-07-13T00:23:30;2.50;;;2.30;;
7045;SDS011;3564;53.326;10.356;2023-07-13T00:25:59;2.27;;;2.00;;
7045;SDS011;3564;53.326;10.356;2023-07-13T00:28:25;5.07;;;2.40;;
7045;SDS011;3564;53.326;10.356;2023-07-13T00:30:51;2.40;;;2.10;;
7045;SDS011;3564;53.326;10.356;2023-07-13T00:33:16;4.80;;;2.50;;
7045;SDS011;3564;53.326;10.356;2023-07-13T00:35:42;3.00;;;2.10;;
7045;SDS011;3564;53.326;10.356;2023-07-13T00:38:08;2.77;;;2.07;;
7045;SDS011;3564;53.326;10.356;2023-07-13T00:40:34;4.53;;;2.23;;
7045;SDS011;3564;53.326;10.356;2023-07-13T00:43:00;4.50;;;2.57;;
7045;SDS011;3564;53.326;10.356;2023-07-13T00:47:51;4.80;;;2.10;;
7045;SDS011;3564;53.326;10.356;2023-07-13T00:50:17;3.40;;;2.33;;
7045;SDS011;3564;53.326;10.356;2023-07-13T00:52:46;3.47;;;2.63;;
7045;SDS011;3564;53.326;10.356;2023-07-13T00:55:15;3.93;;;2.33;;
7045;SDS011;3564;53.326;10.356;2023-07-13T00:57:42;6.60;;;2.93;;
7045;SDS011;3564;53.326;10.356;2023-07-13T01:00:08;2.67;;;2.33;;
7045;SDS011;3564;53.326;10.356;2023-07-13T01:02:35;5.20;;;2.70;;
7045;SDS011;3564;53.326;10.356;2023-07-13T01:05:09;2.77;;;2.30;;
7045;SDS011;3564;53.326;10.356;2023-07-13T01:07:35;3.23;;;2.60;;
7045;SDS011;3564;53.326;10.356;2023-07-13T01:10:01;3.83;;;2.70;;
7045;SDS011;3564;53.326;10.356;2023-07-13T01:12:46;11.80;;;2.60;;
7045;SDS011;3564;53.326;10.356;2023-07-13T01:18:13;4.07;;;2.40;;
7045;SDS011;3564;53.326;10.356;2023-07-13T01:20:59;2.37;;;2.17;;
7045;SDS011;3564;53.326;10.356;2023-07-13T01:23:26;2.43;;;2.23;;
7045;SDS011;3564;53.326;10.356;2023-07-13T01:25:53;3.33;;;2.30;;
7045;SDS011;3564;53.326;10.356;2023-07-13T01:28:20;4.53;;;2.20;;
7045;SDS011;3564;53.326;10.356;2023-07-13T01:30:47;3.20;;;2.40;;
7045;SDS011;3564;53.326;10.356;2023-07-13T01:33:14;2.60;;;1.80;;
7045;SDS011;3564;53.326;10.356;2023-07-13T01:35:42;3.27;;;2.30;;
7045;SDS011;3564;53.326;10.356;2023-07-13T01:38:10;3.10;;;2.10;;
7045;SDS011;3564;53.326;10.356;2023-07-13T01:40:36;4.17;;;2.10;;
7045;SDS011;3564;53.326;10.356;2023-07-13T01:43:09;4.77;;;2.00;;
7045;SDS011;3564;53.326;10.356;2023-07-13T01:45:35;5.00;;;2.37;;
7045;SDS011;3564;53.326;10.356;2023-07-13T01:48:00;2.50;;;2.30;;
7045;SDS011;3564;53.326;10.356;2023-07-13T01:50:26;4.97;;;2.37;;
7045;SDS011;3564;53.326;10.356;2023-07-13T01:52:52;3.30;;;2.67;;
7045;SDS011;3564;53.326;10.356;2023-07-13T01:55:18;3.83;;;2.40;;
7045;SDS011;3564;53.326;10.356;2023-07-13T01:57:43;4.53;;;2.87;;
7045;SDS011;3564;53.326;10.356;2023-07-13T02:00:09;4.17;;;2.70;;
7045;SDS011;3564;53.326;10.356;2023-07-13T02:02:36;3.10;;;2.30;;
7045;SDS011;3564;53.326;10.356;2023-07-13T02:05:02;4.03;;;2.80;;
7045;SDS011;3564;53.326;10.356;2023-07-13T02:07:27;3.10;;;2.80;;
7045;SDS011;3564;53.326;10.356;2023-07-13T02:09:53;3.30;;;2.30;;
7045;SDS011;3564;53.326;10.356;2023-07-13T02:12:18;4.70;;;2.67;;
7045;SDS011;3564;53.326;10.356;2023-07-13T02:14:44;5.83;;;2.50;;
7045;SDS011;3564;53.326;10.356;2023-07-13T02:17:10;6.30;;;3.00;;
7045;SDS011;3564;53.326;10.356;2023-07-13T02:19:36;4.93;;;2.73;;
7045;SDS011;3564;53.326;10.356;2023-07-13T02:22:02;4.80;;;3.00;;
7045;SDS011;3564;53.326;10.356;2023-07-13T02:24:27;3.83;;;3.10;;
7045;SDS011;3564;53.326;10.356;2023-07-13T02:26:53;3.50;;;2.90;;
7045;SDS011;3564;53.326;10.356;2023-07-13T02:29:19;4.80;;;3.10;;
7045;SDS011;3564;53.326;10.356;2023-07-13T02:31:44;4.63;;;2.80;;
7045;SDS011;3564;53.326;10.356;2023-07-13T02:34:10;4.73;;;2.53;;
7045;SDS011;3564;53.326;10.356;2023-07-13T02:36:36;4.77;;;2.80;;
7045;SDS011;3564;53.326;10.356;2023-07-13T02:39:02;4.70;;;3.00;;
7045;SDS011;3564;53.326;10.356;2023-07-13T02:41:30;4.33;;;2.90;;
7045;SDS011;3564;53.326;10.356;2023-07-13T02:43:57;5.07;;;3.10;;
7045;SDS011;3564;53.326;10.356;2023-07-13T02:46:29;4.70;;;3.17;;
7045;SDS011;3564;53.326;10.356;2023-07-13T02:48:59;4.17;;;3.03;;
7045;SDS011;3564;53.326;10.356;2023-07-13T02:51:25;4.20;;;3.10;;
7045;SDS011;3564;53.326;10.356;2023-07-13T02:53:51;3.77;;;2.33;;
7045;SDS011;3564;53.326;10.356;2023-07-13T02:56:17;3.83;;;2.63;;
7045;SDS011;3564;53.326;10.356;2023-07-13T02:58:50;5.87;;;3.10;;
7045;SDS011;3564;53.326;10.356;2023-07-13T03:01:16;4.93;;;3.20;;
7045;SDS011;3564;53.326;10.356;2023-07-13T03:03:47;3.80;;;2.90;;
7045;SDS011;3564;53.326;10.356;2023-07-13T03:06:14;4.10;;;2.67;;
7045;SDS011;3564;53.326;10.356;2023-07-13T03:08:41;4.67;;;2.87;;
7045;SDS011;3564;53.326;10.356;2023-07-13T03:11:09;5.87;;;3.03;;
7045;SDS011;3564;53.326;10.356;2023-07-13T03:13:37;4.63;;;3.20;;
7045;SDS011;3564;53.326;10.356;2023-07-13T03:16:03;4.70;;;2.97;;
7045;SDS011;3564;53.326;10.356;2023-07-13T03:18:30;4.40;;;3.20;;
7045;SDS011;3564;53.326;10.356;2023-07-13T03:20:57;6.30;;;2.73;;
7045;SDS011;3564;53.326;10.356;2023-07-13T03:23:23;4.43;;;2.93;;
7045;SDS011;3564;53.326;10.356;2023-07-13T03:25:49;4.30;;;2.60;;
7045;SDS011;3564;53.326;10.356;2023-07-13T03:28:15;4.07;;;2.93;;
7045;SDS011;3564;53.326;10.356;2023-07-13T03:30:41;2.97;;;2.70;;
7045;SDS011;3564;53.326;10.356;2023-07-13T03:33:07;5.47;;;3.17;;
7045;SDS011;3564;53.326;10.356;2023-07-13T03:35:33;5.27;;;3.07;;
7045;SDS011;3564;53.326;10.356;2023-07-13T03:37:59;2.93;;;2.60;;
7045;SDS011;3564;53.326;10.356;2023-07-13T03:40:26;5.03;;;3.17;;
7045;SDS011;3564;53.326;10.356;2023-07-13T03:42:52;3.13;;;2.83;;
7045;SDS011;3564;53.326;10.356;2023-07-13T03:45:18;4.53;;;2.80;;
7045;SDS011;3564;53.326;10.356;2023-07-13T03:47:44;3.23;;;2.80;;
7045;SDS011;3564;53.326;10.356;2023-07-13T03:50:10;3.67;;;3.07;;
7045;SDS011;3564;53.326;10.356;2023-07-13T03:52:36;4.57;;;3.37;;
7045;SDS011;3564;53.326;10.356;2023-07-13T03:55:01;3.90;;;3.00;;
7045;SDS011;3564;53.326;10.356;2023-07-13T03:57:28;4.23;;;2.90;;
7045;SDS011;3564;53.326;10.356;2023-07-13T03:59:54;3.27;;;2.97;;
7045;SDS011;3564;53.326;10.356;2023-07-13T04:02:19;3.20;;;2.90;;
7045;SDS011;3564;53.326;10.356;2023-07-13T04:04:45;5.43;;;3.10;;
7045;SDS011;3564;53.326;10.356;2023-07-13T04:07:11;4.03;;;2.80;;
7045;SDS011;3564;53.326;10.356;2023-07-13T04:09:37;4.03;;;3.23;;
7045;SDS011;3564;53.326;10.356;2023-07-13T04:12:03;4.43;;;3.00;;
7045;SDS011;3564;53.326;10.356;2023-07-13T04:14:29;4.23;;;3.00;;
7045;SDS011;3564;53.326;10.356;2023-07-13T04:16:55;3.30;;;3.00;;
7045;SDS011;3564;53.326;10.356;2023-07-13T04:19:21;3.43;;;2.90;;
7045;SDS011;3564;53.326;10.356;2023-07-13T04:21:46;7.37;;;3.30;;
7045;SDS011;3564;53.326;10.356;2023-07-13T04:24:12;3.43;;;3.07;;
7045;SDS011;3564;53.326;10.356;2023-07-13T04:26:38;5.10;;;3.00;;
7045;SDS011;3564;53.326;10.356;2023-07-13T04:29:04;4.50;;;3.07;;
7045;SDS011;3564;53.326;10.356;2023-07-13T04:31:31;9.00;;;3.33;;
7045;SDS011;3564;53.326;10.356;2023-07-13T04:33:57;6.17;;;3.17;;
7045;SDS011;3564;53.326;10.356;2023-07-13T04:36:24;6.57;;;3.03;;
7045;SDS011;3564;53.326;10.356;2023-07-13T04:38:52;6.57;;;3.20;;
7045;SDS011;3564;53.326;10.356;2023-07-13T04:41:19;7.87;;;3.50;;
7045;SDS011;3564;53.326;10.356;2023-07-13T04:43:45;7.73;;;3.83;;
7045;SDS011;3564;53.326;10.356;2023-07-13T04:46:11;4.50;;;3.37;;
7045;SDS011;3564;53.326;10.356;2023-07-13T04:48:40;5.90;;;3.27;;
7045;SDS011;3564;53.326;10.356;2023-07-13T04:51:06;6.33;;;3.13;;
7045;SDS011;3564;53.326;10.356;2023-07-13T04:53:32;4.03;;;3.40;;
7045;SDS011;3564;53.326;10.356;2023-07-13T04:55:59;3.47;;;3.03;;
7045;SDS011;3564;53.326;10.356;2023-07-13T04:58:26;5.97;;;3.60;;
7045;SDS011;3564;53.326;10.356;2023-07-13T05:00:52;6.90;;;3.53;;
7045;SDS011;3564;53.326;10.356;2023-07-13T05:03:18;5.87;;;3.33;;
7045;SDS011;3564;53.326;10.356;2023-07-13T05:05:54;3.67;;;3.20;;
7045;SDS011;3564;53.326;10.356;2023-07-13T05:08:20;5.90;;;3.60;;
7045;SDS011;3564;53.326;10.356;2023-07-13T05:10:47;7.07;;;3.37;;
7045;SDS011;3564;53.326;10.356;2023-07-13T05:13:12;5.47;;;2.90;;
7045;SDS011;3564;53.326;10.356;2023-07-13T05:15:38;7.50;;;3.43;;
7045;SDS011;3564;53.326;10.356;2023-07-13T05:18:03;4.40;;;2.77;;
7045;SDS011;3564;53.326;10.356;2023-07-13T05:20:29;7.73;;;3.27;;
7045;SDS011;3564;53.326;10.356;2023-07-13T05:22:55;7.07;;;3.13;;
7045;SDS011;3564;53.326;10.356;2023-07-13T05:25:21;4.10;;;2.87;;
7045;SDS011;3564;53.326;10.356;2023-07-13T05:27:46;6.63;;;3.00;;
7045;SDS011;3564;53.326;10.356;2023-07-13T05:30:12;6.23;;;3.27;;
7045;SDS011;3564;53.326;10.356;2023-07-13T05:32:38;5.20;;;2.80;;
7045;SDS011;3564;53.326;10.356;2023-07-13T05:35:04;5.87;;;3.10;;
7045;SDS011;3564;53.326;10.356;2023-07-13T05:37:30;5.80;;;2.60;;
7045;SDS011;3564;53.326;10.356;2023-07-13T05:39:55;6.80;;;2.90;;
7045;SDS011;3564;53.326;10.356;2023-07-13T05:42:21;9.23;;;3.03;;
7045;SDS011;3564;53.326;10.356;2023-07-13T05:44:46;6.97;;;3.40;;
7045;SDS011;3564;53.326;10.356;2023-07-13T05:47:12;7.10;;;3.10;;
7045;SDS011;3564;53.326;10.356;2023-07-13T05:49:40;4.27;;;2.70;;
7045;SDS011;3564;53.326;10.356;2023-07-13T05:52:06;6.70;;;3.00;;
7045;SDS011;3564;53.326;10.356;2023-07-13T05:54:34;6.13;;;3.50;;
7045;SDS011;3564;53.326;10.356;2023-07-13T05:57:00;8.93;;;3.17;;
7045;SDS011;3564;53.326;10.356;2023-07-13T05:59:26;8.13;;;3.00;;
7045;SDS011;3564;53.326;10.356;2023-07-13T06:01:52;8.90;;;2.93;;
7045;SDS011;3564;53.326;10.356;2023-07-13T06:04:19;9.30;;;3.33;;
7045;SDS011;3564;53.326;10.356;2023-07-13T06:06:45;8.87;;;3.17;;
7045;SDS011;3564;53.326;10.356;2023-07-13T06:09:10;12.03;;;3.53;;
7045;SDS011;3564;53.326;10.356;2023-07-13T06:11:36;7.30;;;3.10;;
7045;SDS011;3564;53.326;10.356;2023-07-13T06:14:01;9.17;;;2.90;;
7045;SDS011;3564;53.326;10.356;2023-07-13T06:16:28;9.37;;;3.03;;
7045;SDS011;3564;53.326;10.356;2023-07-13T06:18:54;7.93;;;3.03;;
7045;SDS011;3564;53.326;10.356;2023-07-13T06:21:21;7.93;;;2.80;;
7045;SDS011;3564;53.326;10.356;2023-07-13T06:23:48;8.07;;;3.17;;
7045;SDS011;3564;53.326;10.356;2023-07-13T06:26:15;8.73;;;3.33;;
7045;SDS011;3564;53.326;10.356;2023-07-13T06:28:42;11.50;;;3.30;;
7045;SDS011;3564;53.326;10.356;2023-07-13T06:31:09;10.40;;;2.90;;
7045;SDS011;3564;53.326;10.356;2023-07-13T06:33:36;8.53;;;2.77;;
7045;SDS011;3564;53.326;10.356;2023-07-13T06:36:03;11.20;;;3.13;;
7045;SDS011;3564;53.326;10.356;2023-07-13T06:38:30;7.03;;;3.17;;
7045;SDS011;3564;53.326;10.356;2023-07-13T06:40:56;6.37;;;3.10;;
7045;SDS011;3564;53.326;10.356;2023-07-13T06:43:21;6.83;;;2.83;;
7045;SDS011;3564;53.326;10.356;2023-07-13T06:45:49;8.10;;;2.93;;
7045;SDS011;3564;53.326;10.356;2023-07-13T06:48:18;10.43;;;3.10;;
7045;SDS011;3564;53.326;10.356;2023-07-13T06:50:48;7.73;;;2.90;;
7045;SDS011;3564;53.326;10.356;2023-07-13T06:53:15;10.60;;;3.23;;
7045;SDS011;3564;53.326;10.356;2023-07-13T06:55:40;11.30;;;3.53;;
7045;SDS011;3564;53.326;10.356;2023-07-13T06:58:09;10.23;;;3.13;;
7045;SDS011;3564;53.326;10.356;2023-07-13T07:00:34;7.60;;;3.40;;
7045;SDS011;3564;53.326;10.356;2023-07-13T07:03:00;10.40;;;3.00;;
7045;SDS011;3564;53.326;10.356;2023-07-13T07:05:25;7.60;;;2.80;;
7045;SDS011;3564;53.326;10.356;2023-07-13T07:07:52;8.63;;;3.13;;
7045;SDS011;3564;53.326;10.356;2023-07-13T07:10:19;6.83;;;2.90;;
7045;SDS011;3564;53.326;10.356;2023-07-13T07:12:45;9.57;;;2.90;;
7045;SDS011;3564;53.326;10.356;2023-07-13T07:15:11;7.43;;;2.97;;
7045;SDS011;3564;53.326;10.356;2023-07-13T07:17:37;6.00;;;2.63;;
7045;SDS011;3564;53.326;10.356;2023-07-13T07:20:03;9.00;;;2.63;;
7045;SDS011;3564;53.326;10.356;2023-07-13T07:22:29;13.73;;;2.43;;
7045;SDS011;3564;53.326;10.356;2023-07-13T07:24:55;11.73;;;3.77;;
7045;SDS011;3564;53.326;10.356;2023-07-13T07:27:22;8.77;;;2.53;;
7045;SDS011;3564;53.326;10.356;2023-07-13T07:29:48;6.47;;;2.50;;
7045;SDS011;3564;53.326;10.356;2023-07-13T07:32:14;6.53;;;2.53;;
7045;SDS011;3564;53.326;10.356;2023-07-13T07:34:39;6.00;;;2.60;;
7045;SDS011;3564;53.326;10.356;2023-07-13T07:37:05;8.40;;;2.80;;
7045;SDS011;3564;53.326;10.356;2023-07-13T07:39:31;8.07;;;2.43;;
7045;SDS011;3564;53.326;10.356;2023-07-13T07:41:57;7.63;;;2.37;;
7045;SDS011;3564;53.326;10.356;2023-07-13T07:44:23;4.23;;;2.70;;
7045;SDS011;3564;53.326;10.356;2023-07-13T07:46:49;9.63;;;2.67;;
7045;SDS011;3564;53.326;10.356;2023-07-13T07:49:14;6.63;;;2.00;;
7045;SDS011;3564;53.326;10.356;2023-07-13T07:51:40;7.43;;;2.33;;
7045;SDS011;3564;53.326;10.356;2023-07-13T07:54:05;5.97;;;2.43;;
7045;SDS011;3564;53.326;10.356;2023-07-13T07:56:31;6.53;;;2.33;;
7045;SDS011;3564;53.326;10.356;2023-07-13T07:58:58;7.20;;;2.90;;
7045;SDS011;3564;53.326;10.356;2023-07-13T08:01:23;6.50;;;2.60;;
7045;SDS011;3564;53.326;10.356;2023-07-13T08:03:49;8.40;;;2.53;;
7045;SDS011;3564;53.326;10.356;2023-07-13T08:06:15;8.00;;;2.43;;
7045;SDS011;3564;53.326;10.356;2023-07-13T08:08:41;9.50;;;2.73;;
7045;SDS011;3564;53.326;10.356;2023-07-13T08:11:07;5.10;;;2.47;;
7045;SDS011;3564;53.326;10.356;2023-07-13T08:13:33;9.30;;;3.23;;
7045;SDS011;3564;53.326;10.356;2023-07-13T08:15:59;5.90;;;2.60;;
7045;SDS011;3564;53.326;10.356;2023-07-13T08:18:25;7.50;;;2.70;;
7045;SDS011;3564;53.326;10.356;2023-07-13T08:20:53;8.07;;;2.43;;
7045;SDS011;3564;53.326;10.356;2023-07-13T08:23:21;10.50;;;2.70;;
7045;SDS011;3564;53.326;10.356;2023-07-13T08:25:51;10.03;;;2.93;;
7045;SDS011;3564;53.326;10.356;2023-07-13T08:28:19;9.43;;;3.07;;
7045;SDS011;3564;53.326;10.356;2023-07-13T08:30:46;8.13;;;2.43;;
7045;SDS011;3564;53.326;10.356;2023-07-13T08:33:14;9.63;;;3.00;;
7045;SDS011;3564;53.326;10.356;2023-07-13T08:35:41;10.50;;;2.93;;
7045;SDS011;3564;53.326;10.356;2023-07-13T08:38:06;7.73;;;2.40;;
7045;SDS011;3564;53.326;10.356;2023-07-13T08:40:32;9.57;;;2.90;;
7045;SDS011;3564;53.326;10.356;2023-07-13T08:43:00;10.93;;;2.50;;
7045;SDS011;3564;53.326;10.356;2023-07-13T08:45:28;9.40;;;2.47;;
7045;SDS011;3564;53.326;10.356;2023-07-13T08:53:23;8.10;;;2.87;;
7045;SDS011;3564;53.326;10.356;2023-07-13T08:55:58;6.50;;;2.33;;
7045;SDS011;3564;53.326;10.356;2023-07-13T08:58:25;6.67;;;2.20;;
7045;SDS011;3564;53.326;10.356;2023-07-13T09:03:50;9.80;;;2.00;;
7045;SDS011;3564;53.326;10.356;2023-07-13T09:15:07;6.93;;;2.20;;
7045;SDS011;3564;53.326;10.356;2023-07-13T09:17:50;5.87;;;2.33;;
7045;SDS011;3564;53.326;10.356;2023-07-13T09:22:45;6.47;;;2.27;;
7045;SDS011;3564;53.326;10.356;2023-07-13T09:25:31;4.77;;;2.37;;
7045;SDS011;3564;53.326;10.356;2023-07-13T09:28:05;3.63;;;2.07;;
7045;SDS011;3564;53.326;10.356;2023-07-13T09:33:12;4.40;;;2.10;;
7045;SDS011;3564;53.326;10.356;2023-07-13T09:35:39;4.97;;;2.13;;
7045;SDS011;3564;53.326;10.356;2023-07-13T09:38:12;5.20;;;2.00;;
7045;SDS011;3564;53.326;10.356;2023-07-13T09:43:26;4.43;;;2.00;;
7045;SDS011;3564;53.326;10.356;2023-07-13T09:45:55;5.57;;;1.70;;
7045;SDS011;3564;53.326;10.356;2023-07-13T09:48:21;4.83;;;1.90;;
7045;SDS011;3564;53.326;10.356;2023-07-13T09:50:47;3.43;;;2.03;;
7045;SDS011;3564;53.326;10.356;2023-07-13T09:53:14;7.97;;;2.00;;
7045;SDS011;3564;53.326;10.356;2023-07-13T09:55:42;6.10;;;2.07;;
7045;SDS011;3564;53.326;10.356;2023-07-13T09:58:16;6.43;;;2.20;;
7045;SDS011;3564;53.326;10.356;2023-07-13T10:00:59;6.07;;;1.90;;
7045;SDS011;3564;53.326;10.356;2023-07-13T10:03:34;5.20;;;1.93;;
7045;SDS011;3564;53.326;10.356;2023-07-13T10:06:10;6.40;;;2.20;;
7045;SDS011;3564;53.326;10.356;2023-07-13T10:08:38;5.00;;;1.87;;
7045;SDS011;3564;53.326;10.356;2023-07-13T10:11:10;4.53;;;2.23;;
7045;SDS011;3564;53.326;10.356;2023-07-13T10:13:46;4.67;;;2.13;;
7045;SDS011;3564;53.326;10.356;2023-07-13T10:16:25;6.23;;;2.00;;
7045;SDS011;3564;53.326;10.356;2023-07-13T10:19:02;4.70;;;2.10;;
7045;SDS011;3564;53.326;10.356;2023-07-13T10:21:49;5.90;;;2.10;;
7045;SDS011;3564;53.326;10.356;2023-07-13T10:24:19;4.27;;;1.73;;
7045;SDS011;3564;53.326;10.356;2023-07-13T10:26:57;3.30;;;1.80;;
7045;SDS011;3564;53.326;10.356;2023-07-13T10:29:24;4.17;;;2.20;;
7045;SDS011;3564;53.326;10.356;2023-07-13T10:31:52;4.80;;;2.57;;
7045;SDS011;3564;53.326;10.356;2023-07-13T10:34:17;4.27;;;2.10;;
7045;SDS011;3564;53.326;10.356;2023-07-13T10:36:44;3.63;;;1.80;;
7045;SDS011;3564;53.326;10.356;2023-07-13T10:39:16;6.10;;;2.40;;
7045;SDS011;3564;53.326;10.356;2023-07-13T10:41:44;5.60;;;1.67;;
7045;SDS011;3564;53.326;10.356;2023-07-13T10:44:17;3.33;;;1.93;;
7045;SDS011;3564;53.326;10.356;2023-07-13T10:47:03;4.70;;;2.10;;
7045;SDS011;3564;53.326;10.356;2023-07-13T10:49:32;4.67;;;2.30;;
7045;SDS011;3564;53.326;10.356;2023-07-13T10:52:00;5.53;;;2.30;;
7045;SDS011;3564;53.326;10.356;2023-07-13T10:54:27;3.17;;;1.90;;
7045;SDS011;3564;53.326;10.356;2023-07-13T10:57:07;4.57;;;2.50;;
7045;SDS011;3564;53.326;10.356;2023-07-13T10:59:48;6.70;;;1.80;;
7045;SDS011;3564;53.326;10.356;2023-07-13T11:02:35;5.90;;;2.30;;
7045;SDS011;3564;53.326;10.356;2023-07-13T11:05:01;4.20;;;2.10;;
7045;SDS011;3564;53.326;10.356;2023-07-13T11:10:46;5.00;;;2.40;;
7045;SDS011;3564;53.326;10.356;2023-07-13T11:16:21;4.03;;;1.93;;
7045;SDS011;3564;53.326;10.356;2023-07-13T11:25:21;4.93;;;2.20;;
7045;SDS011;3564;53.326;10.356;2023-07-13T11:27:42;4.23;;;2.30;;
7045;SDS011;3564;53.326;10.356;2023-07-13T11:32:51;4.73;;;2.03;;
7045;SDS011;3564;53.326;10.356;2023-07-13T11:35:33;5.50;;;2.20;;
7045;SDS011;3564;53.326;10.356;2023-07-13T11:38:01;6.30;;;2.17;;
7045;SDS011;3564;53.326;10.356;2023-07-13T11:40:27;5.23;;;2.10;;
7045;SDS011;3564;53.326;10.356;2023-07-13T11:42:59;5.17;;;2.20;;
7045;SDS011;3564;53.326;10.356;2023-07-13T11:45:26;2.60;;;2.00;;
7045;SDS011;3564;53.326;10.356;2023-07-13T11:47:53;3.43;;;2.47;;
7045;SDS011;3564;53.326;10.356;2023-07-13T11:50:22;4.43;;;2.40;;
7045;SDS011;3564;53.326;10.356;2023-07-13T11:52:49;4.00;;;2.20;;
7045;SDS011;3564;53.326;10.356;2023-07-13T11:55:19;3.07;;;2.00;;
7045;SDS011;3564;53.326;10.356;2023-07-13T11:57:59;2.97;;;1.77;;
7045;SDS011;3564;53.326;10.356;2023-07-13T12:00:28;4.13;;;2.10;;
7045;SDS011;3564;53.326;10.356;2023-07-13T12:02:59;6.17;;;2.53;;
7045;SDS011;3564;53.326;10.356;2023-07-13T12:05:27;5.33;;;2.03;;
7045;SDS011;3564;53.326;10.356;2023-07-13T12:07:54;4.70;;;2.37;;
7045;SDS011;3564;53.326;10.356;2023-07-13T12:10:24;3.13;;;2.23;;
7045;SDS011;3564;53.326;10.356;2023-07-13T12:12:57;3.10;;;2.13;;
7045;SDS011;3564;53.326;10.356;2023-07-13T12:15:38;4.90;;;2.17;;
7045;SDS011;3564;53.326;10.356;2023-07-13T12:18:18;3.13;;;2.17;;
7045;SDS011;3564;53.326;10.356;2023-07-13T12:20:45;5.27;;;2.30;;
7045;SDS011;3564;53.326;10.356;2023-07-13T12:23:29;4.93;;;2.47;;
7045;SDS011;3564;53.326;10.356;2023-07-13T12:25:57;4.03;;;2.07;;
7045;SDS011;3564;53.326;10.356;2023-07-13T12:30:58;4.63;;;1.97;;
7045;SDS011;3564;53.326;10.356;2023-07-13T12:33:27;3.20;;;1.70;;
7045;SDS011;3564;53.326;10.356;2023-07-13T12:35:54;5.33;;;2.10;;
7045;SDS011;3564;53.326;10.356;2023-07-13T12:38:21;4.53;;;2.03;;
7045;SDS011;3564;53.326;10.356;2023-07-13T12:40:49;4.80;;;2.10;;
7045;SDS011;3564;53.326;10.356;2023-07-13T12:43:17;4.33;;;2.07;;
7045;SDS011;3564;53.326;10.356;2023-07-13T12:48:42;4.00;;;1.97;;
7045;SDS011;3564;53.326;10.356;2023-07-13T12:51:11;3.77;;;2.43;;
7045;SDS011;3564;53.326;10.356;2023-07-13T12:53:41;4.10;;;1.90;;
7045;SDS011;3564;53.326;10.356;2023-07-13T12:56:18;4.37;;;2.00;;
7045;SDS011;3564;53.326;10.356;2023-07-13T12:58:47;11.67;;;3.53;;
7045;SDS011;3564;53.326;10.356;2023-07-13T13:01:19;8.03;;;3.43;;
7045;SDS011;3564;53.326;10.356;2023-07-13T13:03:48;7.17;;;3.33;;
7045;SDS011;3564;53.326;10.356;2023-07-13T13:06:21;6.77;;;2.73;;
7045;SDS011;3564;53.326;10.356;2023-07-13T13:08:52;3.47;;;2.20;;
7045;SDS011;3564;53.326;10.356;2023-07-13T13:11:20;3.23;;;2.20;;
7045;SDS011;3564;53.326;10.356;2023-07-13T13:13:48;2.70;;;1.90;;
7045;SDS011;3564;53.326;10.356;2023-07-13T13:18:54;4.07;;;2.30;;
7045;SDS011;3564;53.326;10.356;2023-07-13T13:21:24;4.57;;;2.10;;
7045;SDS011;3564;53.326;10.356;2023-07-13T13:23:51;5.83;;;1.90;;
7045;SDS011;3564;53.326;10.356;2023-07-13T13:26:18;3.30;;;2.13;;
7045;SDS011;3564;53.326;10.356;2023-07-13T13:28:48;3.17;;;2.10;;
7045;SDS011;3564;53.326;10.356;2023-07-13T13:31:14;3.57;;;2.27;;
7045;SDS011;3564;53.326;10.356;2023-07-13T13:33:41;3.33;;;2.20;;
7045;SDS011;3564;53.326;10.356;2023-07-13T13:36:13;3.40;;;2.20;;
7045;SDS011;3564;53.326;10.356;2023-07-13T13:38:41;4.60;;;2.13;;
7045;SDS011;3564;53.326;10.356;2023-07-13T13:41:09;3.60;;;2.30;;
7045;SDS011;3564;53.326;10.356;2023-07-13T13:43:36;3.20;;;2.40;;
7045;SDS011;3564;53.326;10.356;2023-07-13T13:46:02;5.77;;;2.63;;
7045;SDS011;3564;53.326;10.356;2023-07-13T13:48:39;4.83;;;2.80;;
7045;SDS011;3564;53.326;10.356;2023-07-13T13:51:12;2.87;;;2.57;;
7045;SDS011;3564;53.326;10.356;2023-07-13T13:53:47;4.30;;;2.43;;
7045;SDS011;3564;53.326;10.356;2023-07-13T13:56:13;4.30;;;2.67;;
7045;SDS011;3564;53.326;10.356;2023-07-13T13:58:40;7.13;;;2.63;;
7045;SDS011;3564;53.326;10.356;2023-07-13T14:01:19;4.53;;;2.80;;
7045;SDS011;3564;53.326;10.356;2023-07-13T14:03:47;2.63;;;2.30;;
7045;SDS011;3564;53.326;10.356;2023-07-13T14:06:14;6.03;;;2.37;;
7045;SDS011;3564;53.326;10.356;2023-07-13T14:08:41;4.83;;;2.77;;
7045;SDS011;3564;53.326;10.356;2023-07-13T14:11:09;4.70;;;2.90;;
7045;SDS011;3564;53.326;10.356;2023-07-13T14:13:38;4.50;;;2.73;;
7045;SDS011;3564;53.326;10.356;2023-07-13T14:16:17;3.27;;;2.93;;
7045;SDS011;3564;53.326;10.356;2023-07-13T14:18:44;3.70;;;2.60;;
7045;SDS011;3564;53.326;10.356;2023-07-13T14:21:14;5.80;;;2.83;;
7045;SDS011;3564;53.326;10.356;2023-07-13T14:23:41;5.97;;;3.20;;
7045;SDS011;3564;53.326;10.356;2023-07-13T14:26:10;5.17;;;2.90;;
7045;SDS011;3564;53.326;10.356;2023-07-13T14:28:42;4.93;;;3.30;;
7045;SDS011;3564;53.326;10.356;2023-07-13T14:31:11;4.47;;;3.50;;
7045;SDS011;3564;53.326;10.356;2023-07-13T14:33:38;4.37;;;3.30;;
7045;SDS011;3564;53.326;10.356;2023-07-13T14:36:09;3.93;;;2.93;;
7045;SDS011;3564;53.326;10.356;2023-07-13T14:38:49;6.00;;;3.00;;
7045;SDS011;3564;53.326;10.356;2023-07-13T14:41:15;4.03;;;3.30;;
7045;SDS011;3564;53.326;10.356;2023-07-13T14:43:40;3.83;;;3.00;;
7045;SDS011;3564;53.326;10.356;2023-07-13T14:46:07;5.83;;;3.57;;
7045;SDS011;3564;53.326;10.356;2023-07-13T14:48:43;5.33;;;3.70;;
7045;SDS011;3564;53.326;10.356;2023-07-13T14:51:09;4.53;;;2.87;;
7045;SDS011;3564;53.326;10.356;2023-07-13T14:53:35;6.47;;;3.37;;
7045;SDS011;3564;53.326;10.356;2023-07-13T14:56:08;5.73;;;3.63;;
7045;SDS011;3564;53.326;10.356;2023-07-13T14:58:39;4.17;;;3.20;;
7045;SDS011;3564;53.326;10.356;2023-07-13T15:01:08;3.57;;;3.00;;
7045;SDS011;3564;53.326;10.356;2023-07-13T15:03:38;4.17;;;3.23;;
7045;SDS011;3564;53.326;10.356;2023-07-13T15:06:12;4.77;;;3.40;;
7045;SDS011;3564;53.326;10.356;2023-07-13T15:08:38;4.07;;;3.27;;
7045;SDS011;3564;53.326;10.356;2023-07-13T15:11:06;6.50;;;3.07;;
7045;SDS011;3564;53.326;10.356;2023-07-13T15:13:32;4.90;;;3.10;;
7045;SDS011;3564;53.326;10.356;2023-07-13T15:15:59;4.83;;;2.97;;
7045;SDS011;3564;53.326;10.356;2023-07-13T15:18:25;4.73;;;3.30;;
7045;SDS011;3564;53.326;10.356;2023-07-13T15:20:54;3.30;;;3.00;;
7045;SDS011;3564;53.326;10.356;2023-07-13T15:23:21;3.60;;;3.30;;
7045;SDS011;3564;53.326;10.356;2023-07-13T15:25:51;5.20;;;3.03;;
7045;SDS011;3564;53.326;10.356;2023-07-13T15:28:17;2.73;;;2.53;;
7045;SDS011;3564;53.326;10.356;2023-07-13T15:30:46;4.47;;;2.37;;
7045;SDS011;3564;53.326;10.356;2023-07-13T15:35:42;2.83;;;2.33;;
7045;SDS011;3564;53.326;10.356;2023-07-13T15:38:16;4.17;;;2.30;;
7045;SDS011;3564;53.326;10.356;2023-07-13T15:40:46;2.23;;;2.07;;
7045;SDS011;3564;53.326;10.356;2023-07-13T15:43:13;2.27;;;1.80;;
7045;SDS011;3564;53.326;10.356;2023-07-13T15:45:40;3.67;;;2.47;;
7045;SDS011;3564;53.326;10.356;2023-07-13T15:48:11;2.10;;;1.90;;
7045;SDS011;3564;53.326;10.356;2023-07-13T15:50:44;2.87;;;2.10;;
7045;SDS011;3564;53.326;10.356;2023-07-13T15:53:12;2.60;;;2.27;;
7045;SDS011;3564;53.326;10.356;2023-07-13T15:55:40;1.97;;;1.77;;
7045;SDS011;3564;53.326;10.356;2023-07-13T15:58:08;3.20;;;2.07;;
7045;SDS011;3564;53.326;10.356;2023-07-13T16:00:36;2.30;;;1.80;;
7045;SDS011;3564;53.326;10.356;2023-07-13T16:03:02;3.10;;;1.70;;